sensor_id;sensor_type;location;lat;lon;timestamp;P1;durP1;ratioP1;P2;durP2;ratioP2
23634;SDS011;11994;51.038;16.974;2022-07-19T00:00:25;5.28;;;2.90;;
23634;SDS011;11994;51.038;16.974;2022-07-19T00:02:51;9.08;;;3.10;;
23634;SDS011;11994;51.038;16.974;2022-07-19T00:05:18;8.63;;;3.25;;
23634;SDS011;11994;51.038;16.974;2022-07-19T00:07:45;8.20;;;3.40;;
23634;SDS011;11994;51.038;16.974;2022-07-19T00:10:11;6.45;;;3.08;;
23634;SDS011;11994;51.038;16.974;2022-07-19T00:12:40;7.05;;;2.60;;
23634;SDS011;11994;51.038;16.974;2022-07-19T00:15:07;7.47;;;3.20;;
23634;SDS011;11994;51.038;16.974;2022-07-19T00:17:38;8.50;;;3.00;;
23634;SDS011;11994;51.038;16.974;2022-07-19T00:20:06;6.95;;;3.25;;
23634;SDS011;11994;51.038;16.974;2022-07-19T00:22:35;7.22;;;3.22;;
23634;SDS011;11994;51.038;16.974;2022-07-19T00:25:01;9.10;;;3.02;;
23634;SDS011;11994;51.038;16.974;2022-07-19T00:27:28;6.28;;;3.20;;
23634;SDS011;11994;51.038;16.974;2022-07-19T00:29:54;6.70;;;3.10;;
23634;SDS011;11994;51.038;16.974;2022-07-19T00:32:21;9.48;;;3.33;;
23634;SDS011;11994;51.038;16.974;2022-07-19T00:34:47;10.23;;;3.55;;
23634;SDS011;11994;51.038;16.974;2022-07-19T00:37:13;11.65;;;3.27;;
23634;SDS011;11994;51.038;16.974;2022-07-19T00:39:39;6.53;;;2.80;;
23634;SDS011;11994;51.038;16.974;2022-07-19T00:42:05;9.63;;;3.98;;
23634;SDS011;11994;51.038;16.974;2022-07-19T00:44:31;8.53;;;3.65;;
23634;SDS011;11994;51.038;16.974;2022-07-19T00:46:57;8.90;;;3.50;;
23634;SDS011;11994;51.038;16.974;2022-07-19T00:49:23;8.63;;;3.15;;
23634;SDS011;11994;51.038;16.974;2022-07-19T00:51:50;9.73;;;3.77;;
23634;SDS011;11994;51.038;16.974;2022-07-19T00:54:18;5.45;;;3.10;;
23634;SDS011;11994;51.038;16.974;2022-07-19T00:56:47;7.60;;;3.20;;
23634;SDS011;11994;51.038;16.974;2022-07-19T00:59:15;10.70;;;3.30;;
23634;SDS011;11994;51.038;16.974;2022-07-19T01:01:42;7.20;;;3.42;;
23634;SDS011;11994;51.038;16.974;2022-07-19T01:04:10;7.95;;;3.35;;
23634;SDS011;11994;51.038;16.974;2022-07-19T01:06:36;6.53;;;2.90;;
23634;SDS011;11994;51.038;16.974;2022-07-19T01:09:03;10.38;;;3.47;;
23634;SDS011;11994;51.038;16.974;2022-07-19T01:11:30;8.43;;;3.05;;
23634;SDS011;11994;51.038;16.974;2022-07-19T01:13:56;7.20;;;2.87;;
23634;SDS011;11994;51.038;16.974;2022-07-19T01:16:22;9.98;;;3.35;;
23634;SDS011;11994;51.038;16.974;2022-07-19T01:18:48;8.53;;;3.37;;
23634;SDS011;11994;51.038;16.974;2022-07-19T01:21:20;6.72;;;3.00;;
23634;SDS011;11994;51.038;16.974;2022-07-19T01:23:48;5.90;;;3.00;;
23634;SDS011;11994;51.038;16.974;2022-07-19T01:26:15;8.85;;;3.42;;
23634;SDS011;11994;51.038;16.974;2022-07-19T01:28:41;7.67;;;3.60;;
23634;SDS011;11994;51.038;16.974;2022-07-19T01:31:09;9.05;;;3.42;;
23634;SDS011;11994;51.038;16.974;2022-07-19T01:33:39;6.67;;;2.83;;
23634;SDS011;11994;51.038;16.974;2022-07-19T01:36:07;8.80;;;3.30;;
23634;SDS011;11994;51.038;16.974;2022-07-19T01:38:33;8.73;;;3.50;;
23634;SDS011;11994;51.038;16.974;2022-07-19T01:41:00;7.50;;;3.17;;
23634;SDS011;11994;51.038;16.974;2022-07-19T01:43:26;7.53;;;3.25;;
23634;SDS011;11994;51.038;16.974;2022-07-19T01:45:52;6.65;;;3.02;;
23634;SDS011;11994;51.038;16.974;2022-07-19T01:48:19;6.15;;;3.00;;
23634;SDS011;11994;51.038;16.974;2022-07-19T01:50:46;7.08;;;2.90;;
23634;SDS011;11994;51.038;16.974;2022-07-19T01:53:12;9.80;;;3.55;;
23634;SDS011;11994;51.038;16.974;2022-07-19T01:55:38;11.22;;;3.50;;
23634;SDS011;11994;51.038;16.974;2022-07-19T01:58:04;8.08;;;3.42;;
23634;SDS011;11994;51.038;16.974;2022-07-19T02:00:30;8.73;;;3.62;;
23634;SDS011;11994;51.038;16.974;2022-07-19T02:02:56;13.00;;;4.30;;
23634;SDS011;11994;51.038;16.974;2022-07-19T02:05:22;11.48;;;3.75;;
23634;SDS011;11994;51.038;16.974;2022-07-19T02:07:48;12.20;;;3.30;;
23634;SDS011;11994;51.038;16.974;2022-07-19T02:10:15;15.65;;;3.77;;
23634;SDS011;11994;51.038;16.974;2022-07-19T02:12:42;8.08;;;3.25;;
23634;SDS011;11994;51.038;16.974;2022-07-19T02:15:08;12.47;;;3.67;;
23634;SDS011;11994;51.038;16.974;2022-07-19T02:17:35;10.55;;;3.70;;
23634;SDS011;11994;51.038;16.974;2022-07-19T02:20:01;8.95;;;3.45;;
23634;SDS011;11994;51.038;16.974;2022-07-19T02:22:28;9.00;;;3.40;;
23634;SDS011;11994;51.038;16.974;2022-07-19T02:24:54;7.58;;;3.17;;
23634;SDS011;11994;51.038;16.974;2022-07-19T02:27:20;8.88;;;3.98;;
23634;SDS011;11994;51.038;16.974;2022-07-19T02:29:46;7.92;;;3.30;;
23634;SDS011;11994;51.038;16.974;2022-07-19T02:32:13;9.65;;;3.62;;
23634;SDS011;11994;51.038;16.974;2022-07-19T02:34:39;8.88;;;3.17;;
23634;SDS011;11994;51.038;16.974;2022-07-19T02:37:05;9.40;;;3.20;;
23634;SDS011;11994;51.038;16.974;2022-07-19T02:39:31;5.35;;;2.90;;
23634;SDS011;11994;51.038;16.974;2022-07-19T02:41:57;8.33;;;3.20;;
23634;SDS011;11994;51.038;16.974;2022-07-19T02:44:23;10.65;;;3.35;;
23634;SDS011;11994;51.038;16.974;2022-07-19T02:46:49;10.45;;;3.37;;
23634;SDS011;11994;51.038;16.974;2022-07-19T02:49:15;8.15;;;3.25;;
23634;SDS011;11994;51.038;16.974;2022-07-19T02:51:41;6.80;;;3.37;;
23634;SDS011;11994;51.038;16.974;2022-07-19T02:54:07;6.95;;;3.52;;
23634;SDS011;11994;51.038;16.974;2022-07-19T02:56:32;8.00;;;3.52;;
23634;SDS011;11994;51.038;16.974;2022-07-19T02:59:00;11.28;;;3.35;;
23634;SDS011;11994;51.038;16.974;2022-07-19T03:01:26;9.95;;;3.52;;
23634;SDS011;11994;51.038;16.974;2022-07-19T03:03:52;7.25;;;3.60;;
23634;SDS011;11994;51.038;16.974;2022-07-19T03:06:19;8.05;;;3.20;;
23634;SDS011;11994;51.038;16.974;2022-07-19T03:08:45;9.68;;;3.02;;
23634;SDS011;11994;51.038;16.974;2022-07-19T03:11:11;9.98;;;3.40;;
23634;SDS011;11994;51.038;16.974;2022-07-19T03:13:38;7.65;;;2.90;;
23634;SDS011;11994;51.038;16.974;2022-07-19T03:16:04;6.90;;;3.30;;
23634;SDS011;11994;51.038;16.974;2022-07-19T03:18:30;9.55;;;3.62;;
23634;SDS011;11994;51.038;16.974;2022-07-19T03:20:57;9.25;;;3.05;;
23634;SDS011;11994;51.038;16.974;2022-07-19T03:23:26;6.80;;;3.12;;
23634;SDS011;11994;51.038;16.974;2022-07-19T03:25:53;7.17;;;2.85;;
23634;SDS011;11994;51.038;16.974;2022-07-19T03:28:19;7.42;;;3.30;;
23634;SDS011;11994;51.038;16.974;2022-07-19T03:30:45;6.20;;;3.15;;
23634;SDS011;11994;51.038;16.974;2022-07-19T03:33:11;5.30;;;3.37;;
23634;SDS011;11994;51.038;16.974;2022-07-19T03:35:39;11.53;;;3.33;;
23634;SDS011;11994;51.038;16.974;2022-07-19T03:38:09;10.18;;;3.35;;
23634;SDS011;11994;51.038;16.974;2022-07-19T03:40:40;5.97;;;2.80;;
23634;SDS011;11994;51.038;16.974;2022-07-19T03:43:06;8.15;;;3.30;;
23634;SDS011;11994;51.038;16.974;2022-07-19T03:45:32;9.33;;;3.33;;
23634;SDS011;11994;51.038;16.974;2022-07-19T03:47:59;6.95;;;3.10;;
23634;SDS011;11994;51.038;16.974;2022-07-19T03:50:25;6.60;;;3.45;;
23634;SDS011;11994;51.038;16.974;2022-07-19T03:52:52;8.93;;;3.33;;
23634;SDS011;11994;51.038;16.974;2022-07-19T03:55:18;7.92;;;3.37;;
23634;SDS011;11994;51.038;16.974;2022-07-19T03:57:44;12.98;;;3.50;;
23634;SDS011;11994;51.038;16.974;2022-07-19T04:00:10;8.48;;;3.37;;
23634;SDS011;11994;51.038;16.974;2022-07-19T04:02:36;8.50;;;3.27;;
23634;SDS011;11994;51.038;16.974;2022-07-19T04:05:02;10.20;;;3.62;;
23634;SDS011;11994;51.038;16.974;2022-07-19T04:07:29;6.53;;;2.80;;
23634;SDS011;11994;51.038;16.974;2022-07-19T04:09:55;8.15;;;3.05;;
23634;SDS011;11994;51.038;16.974;2022-07-19T04:12:21;6.30;;;3.40;;
23634;SDS011;11994;51.038;16.974;2022-07-19T04:14:46;8.70;;;3.30;;
23634;SDS011;11994;51.038;16.974;2022-07-19T04:17:12;7.03;;;3.02;;
23634;SDS011;11994;51.038;16.974;2022-07-19T04:19:38;9.08;;;3.00;;
23634;SDS011;11994;51.038;16.974;2022-07-19T04:22:04;7.78;;;3.02;;
23634;SDS011;11994;51.038;16.974;2022-07-19T04:24:30;6.30;;;3.15;;
23634;SDS011;11994;51.038;16.974;2022-07-19T04:26:56;5.58;;;3.10;;
23634;SDS011;11994;51.038;16.974;2022-07-19T04:29:22;11.05;;;3.27;;
23634;SDS011;11994;51.038;16.974;2022-07-19T04:31:48;6.95;;;2.85;;
23634;SDS011;11994;51.038;16.974;2022-07-19T04:34:13;7.28;;;3.02;;
23634;SDS011;11994;51.038;16.974;2022-07-19T04:36:39;6.67;;;2.70;;
23634;SDS011;11994;51.038;16.974;2022-07-19T04:39:05;5.45;;;3.00;;
23634;SDS011;11994;51.038;16.974;2022-07-19T04:41:31;5.78;;;2.60;;
23634;SDS011;11994;51.038;16.974;2022-07-19T04:43:57;10.53;;;3.37;;
23634;SDS011;11994;51.038;16.974;2022-07-19T04:46:23;7.95;;;2.90;;
23634;SDS011;11994;51.038;16.974;2022-07-19T04:48:49;6.65;;;3.37;;
23634;SDS011;11994;51.038;16.974;2022-07-19T04:51:15;7.33;;;3.45;;
23634;SDS011;11994;51.038;16.974;2022-07-19T04:53:41;6.08;;;3.08;;
23634;SDS011;11994;51.038;16.974;2022-07-19T04:56:07;9.88;;;3.42;;
23634;SDS011;11994;51.038;16.974;2022-07-19T04:58:33;8.25;;;2.70;;
23634;SDS011;11994;51.038;16.974;2022-07-19T05:01:00;5.42;;;2.90;;
23634;SDS011;11994;51.038;16.974;2022-07-19T05:03:26;6.50;;;2.90;;
23634;SDS011;11994;51.038;16.974;2022-07-19T05:05:51;6.40;;;3.10;;
23634;SDS011;11994;51.038;16.974;2022-07-19T05:08:17;8.48;;;3.20;;
23634;SDS011;11994;51.038;16.974;2022-07-19T05:10:43;7.17;;;2.87;;
23634;SDS011;11994;51.038;16.974;2022-07-19T05:13:09;7.87;;;2.90;;
23634;SDS011;11994;51.038;16.974;2022-07-19T05:15:35;7.67;;;2.95;;
23634;SDS011;11994;51.038;16.974;2022-07-19T05:18:01;5.85;;;2.80;;
23634;SDS011;11994;51.038;16.974;2022-07-19T05:20:27;6.87;;;2.83;;
23634;SDS011;11994;51.038;16.974;2022-07-19T05:22:53;8.78;;;3.20;;
23634;SDS011;11994;51.038;16.974;2022-07-19T05:25:19;5.12;;;2.62;;
23634;SDS011;11994;51.038;16.974;2022-07-19T05:27:45;6.33;;;2.55;;
23634;SDS011;11994;51.038;16.974;2022-07-19T05:30:11;6.42;;;2.70;;
23634;SDS011;11994;51.038;16.974;2022-07-19T05:32:38;7.53;;;3.12;;
23634;SDS011;11994;51.038;16.974;2022-07-19T05:35:04;7.40;;;2.80;;
23634;SDS011;11994;51.038;16.974;2022-07-19T05:37:30;9.35;;;2.50;;
23634;SDS011;11994;51.038;16.974;2022-07-19T05:39:56;11.40;;;2.95;;
23634;SDS011;11994;51.038;16.974;2022-07-19T05:42:22;10.03;;;2.70;;
23634;SDS011;11994;51.038;16.974;2022-07-19T05:44:48;5.20;;;2.70;;
23634;SDS011;11994;51.038;16.974;2022-07-19T05:47:14;5.95;;;2.47;;
23634;SDS011;11994;51.038;16.974;2022-07-19T05:49:41;5.12;;;2.50;;
23634;SDS011;11994;51.038;16.974;2022-07-19T05:52:09;6.08;;;2.25;;
23634;SDS011;11994;51.038;16.974;2022-07-19T05:54:35;6.28;;;2.90;;
23634;SDS011;11994;51.038;16.974;2022-07-19T05:57:01;6.72;;;2.30;;
23634;SDS011;11994;51.038;16.974;2022-07-19T05:59:27;8.30;;;2.55;;
23634;SDS011;11994;51.038;16.974;2022-07-19T06:01:53;4.72;;;2.45;;
23634;SDS011;11994;51.038;16.974;2022-07-19T06:04:19;6.05;;;2.40;;
23634;SDS011;11994;51.038;16.974;2022-07-19T06:06:45;5.22;;;2.20;;
23634;SDS011;11994;51.038;16.974;2022-07-19T06:09:11;7.97;;;2.50;;
23634;SDS011;11994;51.038;16.974;2022-07-19T06:11:38;6.55;;;2.50;;
23634;SDS011;11994;51.038;16.974;2022-07-19T06:14:08;6.97;;;2.37;;
23634;SDS011;11994;51.038;16.974;2022-07-19T06:16:35;5.72;;;2.17;;
23634;SDS011;11994;51.038;16.974;2022-07-19T06:19:03;9.23;;;2.30;;
23634;SDS011;11994;51.038;16.974;2022-07-19T06:21:30;6.05;;;2.20;;
23634;SDS011;11994;51.038;16.974;2022-07-19T06:23:58;5.67;;;2.20;;
23634;SDS011;11994;51.038;16.974;2022-07-19T06:26:24;6.33;;;2.17;;
23634;SDS011;11994;51.038;16.974;2022-07-19T06:28:52;5.95;;;2.08;;
23634;SDS011;11994;51.038;16.974;2022-07-19T06:31:19;7.60;;;2.27;;
23634;SDS011;11994;51.038;16.974;2022-07-19T06:33:45;9.20;;;2.35;;
23634;SDS011;11994;51.038;16.974;2022-07-19T06:36:13;6.67;;;2.02;;
23634;SDS011;11994;51.038;16.974;2022-07-19T06:38:40;5.33;;;1.90;;
23634;SDS011;11994;51.038;16.974;2022-07-19T06:41:07;6.67;;;2.05;;
23634;SDS011;11994;51.038;16.974;2022-07-19T06:43:34;7.33;;;2.17;;
23634;SDS011;11994;51.038;16.974;2022-07-19T06:46:00;9.05;;;2.20;;
23634;SDS011;11994;51.038;16.974;2022-07-19T06:48:26;5.62;;;1.80;;
23634;SDS011;11994;51.038;16.974;2022-07-19T06:50:52;6.35;;;1.70;;
23634;SDS011;11994;51.038;16.974;2022-07-19T06:53:18;10.98;;;1.85;;
23634;SDS011;11994;51.038;16.974;2022-07-19T06:55:45;5.35;;;1.70;;
23634;SDS011;11994;51.038;16.974;2022-07-19T06:58:10;7.62;;;2.00;;
23634;SDS011;11994;51.038;16.974;2022-07-19T07:00:37;3.47;;;1.35;;
23634;SDS011;11994;51.038;16.974;2022-07-19T07:03:03;3.00;;;1.70;;
23634;SDS011;11994;51.038;16.974;2022-07-19T07:05:29;4.97;;;1.60;;
23634;SDS011;11994;51.038;16.974;2022-07-19T07:07:55;3.50;;;1.50;;
23634;SDS011;11994;51.038;16.974;2022-07-19T07:10:21;6.58;;;1.70;;
23634;SDS011;11994;51.038;16.974;2022-07-19T07:12:47;4.67;;;1.57;;
23634;SDS011;11994;51.038;16.974;2022-07-19T07:15:13;5.12;;;1.40;;
23634;SDS011;11994;51.038;16.974;2022-07-19T07:17:39;5.85;;;1.80;;
23634;SDS011;11994;51.038;16.974;2022-07-19T07:20:05;5.30;;;1.85;;
23634;SDS011;11994;51.038;16.974;2022-07-19T07:22:33;5.20;;;1.65;;
23634;SDS011;11994;51.038;16.974;2022-07-19T07:25:00;4.45;;;1.50;;
23634;SDS011;11994;51.038;16.974;2022-07-19T07:27:26;6.92;;;2.12;;
23634;SDS011;11994;51.038;16.974;2022-07-19T07:29:52;6.28;;;1.60;;
23634;SDS011;11994;51.038;16.974;2022-07-19T07:32:18;6.95;;;1.50;;
23634;SDS011;11994;51.038;16.974;2022-07-19T07:34:44;7.37;;;1.65;;
23634;SDS011;11994;51.038;16.974;2022-07-19T07:37:11;7.05;;;1.80;;
23634;SDS011;11994;51.038;16.974;2022-07-19T07:39:37;5.25;;;1.57;;
23634;SDS011;11994;51.038;16.974;2022-07-19T07:42:04;6.12;;;1.60;;
23634;SDS011;11994;51.038;16.974;2022-07-19T07:44:31;6.35;;;1.47;;
23634;SDS011;11994;51.038;16.974;2022-07-19T07:46:57;8.10;;;1.65;;
23634;SDS011;11994;51.038;16.974;2022-07-19T07:49:23;5.20;;;1.60;;
23634;SDS011;11994;51.038;16.974;2022-07-19T07:51:49;7.50;;;1.47;;
23634;SDS011;11994;51.038;16.974;2022-07-19T07:54:15;6.42;;;1.50;;
23634;SDS011;11994;51.038;16.974;2022-07-19T07:56:41;5.90;;;1.75;;
23634;SDS011;11994;51.038;16.974;2022-07-19T07:59:07;7.58;;;1.67;;
23634;SDS011;11994;51.038;16.974;2022-07-19T08:01:33;4.75;;;1.50;;
23634;SDS011;11994;51.038;16.974;2022-07-19T08:03:59;5.45;;;1.42;;
23634;SDS011;11994;51.038;16.974;2022-07-19T08:06:26;4.62;;;1.65;;
23634;SDS011;11994;51.038;16.974;2022-07-19T08:08:51;8.15;;;1.65;;
23634;SDS011;11994;51.038;16.974;2022-07-19T08:11:17;6.87;;;1.80;;
23634;SDS011;11994;51.038;16.974;2022-07-19T08:13:43;7.37;;;1.50;;
23634;SDS011;11994;51.038;16.974;2022-07-19T08:16:09;6.45;;;1.42;;
23634;SDS011;11994;51.038;16.974;2022-07-19T08:18:36;3.80;;;1.50;;
23634;SDS011;11994;51.038;16.974;2022-07-19T08:21:02;9.13;;;1.50;;
23634;SDS011;11994;51.038;16.974;2022-07-19T08:23:28;4.70;;;1.60;;
23634;SDS011;11994;51.038;16.974;2022-07-19T08:25:54;9.85;;;1.52;;
23634;SDS011;11994;51.038;16.974;2022-07-19T08:28:20;5.75;;;1.40;;
23634;SDS011;11994;51.038;16.974;2022-07-19T08:30:45;4.58;;;1.52;;
23634;SDS011;11994;51.038;16.974;2022-07-19T08:33:11;4.67;;;1.50;;
23634;SDS011;11994;51.038;16.974;2022-07-19T08:35:37;6.30;;;1.57;;
23634;SDS011;11994;51.038;16.974;2022-07-19T08:38:03;4.42;;;1.50;;
23634;SDS011;11994;51.038;16.974;2022-07-19T08:40:30;5.40;;;1.30;;
23634;SDS011;11994;51.038;16.974;2022-07-19T08:42:59;10.45;;;1.50;;
23634;SDS011;11994;51.038;16.974;2022-07-19T08:45:30;3.87;;;1.67;;
23634;SDS011;11994;51.038;16.974;2022-07-19T08:47:57;5.12;;;1.75;;
23634;SDS011;11994;51.038;16.974;2022-07-19T08:50:23;6.67;;;1.50;;
23634;SDS011;11994;51.038;16.974;2022-07-19T08:52:51;5.65;;;1.40;;
23634;SDS011;11994;51.038;16.974;2022-07-19T08:55:18;6.80;;;1.50;;
23634;SDS011;11994;51.038;16.974;2022-07-19T08:57:44;3.58;;;1.35;;
23634;SDS011;11994;51.038;16.974;2022-07-19T09:00:22;3.37;;;1.00;;
23634;SDS011;11994;51.038;16.974;2022-07-19T09:02:51;2.27;;;1.20;;
23634;SDS011;11994;51.038;16.974;2022-07-19T09:05:18;4.95;;;1.50;;
23634;SDS011;11994;51.038;16.974;2022-07-19T09:07:58;4.83;;;1.50;;
23634;SDS011;11994;51.038;16.974;2022-07-19T09:10:33;5.03;;;1.62;;
23634;SDS011;11994;51.038;16.974;2022-07-19T09:15:39;3.92;;;1.37;;
23634;SDS011;11994;51.038;16.974;2022-07-19T09:20:58;5.65;;;1.70;;
23634;SDS011;11994;51.038;16.974;2022-07-19T09:23:28;7.30;;;1.98;;
23634;SDS011;11994;51.038;16.974;2022-07-19T09:25:55;7.45;;;2.05;;
23634;SDS011;11994;51.038;16.974;2022-07-19T09:28:25;4.20;;;1.92;;
23634;SDS011;11994;51.038;16.974;2022-07-19T09:33:27;6.10;;;2.15;;
23634;SDS011;11994;51.038;16.974;2022-07-19T09:35:54;4.60;;;1.92;;
23634;SDS011;11994;51.038;16.974;2022-07-19T09:38:29;8.10;;;2.08;;
23634;SDS011;11994;51.038;16.974;2022-07-19T09:46:32;5.85;;;1.60;;
23634;SDS011;11994;51.038;16.974;2022-07-19T09:51:40;4.10;;;1.90;;
23634;SDS011;11994;51.038;16.974;2022-07-19T09:54:10;6.55;;;2.17;;
23634;SDS011;11994;51.038;16.974;2022-07-19T09:56:39;4.70;;;1.90;;
23634;SDS011;11994;51.038;16.974;2022-07-19T09:59:08;4.87;;;1.95;;
23634;SDS011;11994;51.038;16.974;2022-07-19T10:01:35;6.78;;;2.08;;
23634;SDS011;11994;51.038;16.974;2022-07-19T10:04:02;7.08;;;2.20;;
23634;SDS011;11994;51.038;16.974;2022-07-19T10:06:41;3.67;;;1.70;;
23634;SDS011;11994;51.038;16.974;2022-07-19T10:09:10;4.25;;;1.80;;
23634;SDS011;11994;51.038;16.974;2022-07-19T10:11:39;3.05;;;1.80;;
23634;SDS011;11994;51.038;16.974;2022-07-19T10:14:06;4.40;;;1.52;;
23634;SDS011;11994;51.038;16.974;2022-07-19T10:19:46;5.80;;;1.47;;
23634;SDS011;11994;51.038;16.974;2022-07-19T10:22:16;5.17;;;1.77;;
23634;SDS011;11994;51.038;16.974;2022-07-19T10:32:42;6.20;;;1.98;;
23634;SDS011;11994;51.038;16.974;2022-07-19T10:38:05;3.92;;;1.50;;
23634;SDS011;11994;51.038;16.974;2022-07-19T10:46:07;5.55;;;1.77;;
23634;SDS011;11994;51.038;16.974;2022-07-19T10:48:40;6.83;;;1.60;;
23634;SDS011;11994;51.038;16.974;2022-07-19T10:53:59;6.28;;;2.02;;
23634;SDS011;11994;51.038;16.974;2022-07-19T10:56:32;4.30;;;1.47;;
23634;SDS011;11994;51.038;16.974;2022-07-19T10:59:12;7.50;;;1.72;;
23634;SDS011;11994;51.038;16.974;2022-07-19T11:01:38;9.70;;;1.50;;
23634;SDS011;11994;51.038;16.974;2022-07-19T11:12:23;4.80;;;1.57;;
23634;SDS011;11994;51.038;16.974;2022-07-19T11:14:53;5.03;;;1.60;;
23634;SDS011;11994;51.038;16.974;2022-07-19T11:17:20;4.92;;;1.62;;
23634;SDS011;11994;51.038;16.974;2022-07-19T11:20:04;5.03;;;1.40;;
23634;SDS011;11994;51.038;16.974;2022-07-19T11:22:38;3.98;;;1.47;;
23634;SDS011;11994;51.038;16.974;2022-07-19T11:25:08;4.65;;;1.40;;
23634;SDS011;11994;51.038;16.974;2022-07-19T11:27:39;2.10;;;1.10;;
23634;SDS011;11994;51.038;16.974;2022-07-19T11:30:10;2.65;;;1.20;;
23634;SDS011;11994;51.038;16.974;2022-07-19T11:32:38;4.60;;;1.30;;
23634;SDS011;11994;51.038;16.974;2022-07-19T11:35:09;6.83;;;1.60;;
23634;SDS011;11994;51.038;16.974;2022-07-19T11:37:40;6.28;;;1.45;;
23634;SDS011;11994;51.038;16.974;2022-07-19T11:40:07;4.87;;;2.00;;
23634;SDS011;11994;51.038;16.974;2022-07-19T11:42:36;5.60;;;1.37;;
23634;SDS011;11994;51.038;16.974;2022-07-19T11:45:15;6.10;;;1.50;;
23634;SDS011;11994;51.038;16.974;2022-07-19T11:47:52;2.98;;;1.40;;
23634;SDS011;11994;51.038;16.974;2022-07-19T11:50:21;3.50;;;1.60;;
23634;SDS011;11994;51.038;16.974;2022-07-19T11:52:54;6.50;;;1.62;;
23634;SDS011;11994;51.038;16.974;2022-07-19T11:55:24;3.37;;;1.57;;
23634;SDS011;11994;51.038;16.974;2022-07-19T11:57:52;4.55;;;1.35;;
23634;SDS011;11994;51.038;16.974;2022-07-19T12:00:20;4.95;;;1.50;;
23634;SDS011;11994;51.038;16.974;2022-07-19T12:02:50;6.08;;;1.15;;
23634;SDS011;11994;51.038;16.974;2022-07-19T12:05:27;3.58;;;1.20;;
23634;SDS011;11994;51.038;16.974;2022-07-19T12:07:54;7.22;;;1.42;;
23634;SDS011;11994;51.038;16.974;2022-07-19T12:13:13;3.98;;;1.62;;
23634;SDS011;11994;51.038;16.974;2022-07-19T12:18:20;4.80;;;1.35;;
23634;SDS011;11994;51.038;16.974;2022-07-19T12:26:37;5.08;;;1.55;;
23634;SDS011;11994;51.038;16.974;2022-07-19T12:31:52;3.40;;;1.35;;
23634;SDS011;11994;51.038;16.974;2022-07-19T12:34:22;5.45;;;1.67;;
23634;SDS011;11994;51.038;16.974;2022-07-19T12:36:48;5.15;;;1.50;;
23634;SDS011;11994;51.038;16.974;2022-07-19T12:39:27;5.15;;;1.62;;
23634;SDS011;11994;51.038;16.974;2022-07-19T12:42:02;5.80;;;1.50;;
23634;SDS011;11994;51.038;16.974;2022-07-19T12:44:31;4.05;;;1.50;;
23634;SDS011;11994;51.038;16.974;2022-07-19T12:47:00;3.90;;;1.57;;
23634;SDS011;11994;51.038;16.974;2022-07-19T12:49:44;3.65;;;1.40;;
23634;SDS011;11994;51.038;16.974;2022-07-19T12:52:12;4.40;;;1.47;;
23634;SDS011;11994;51.038;16.974;2022-07-19T12:54:39;5.35;;;1.75;;
23634;SDS011;11994;51.038;16.974;2022-07-19T12:57:05;4.28;;;1.40;;
23634;SDS011;11994;51.038;16.974;2022-07-19T12:59:32;6.30;;;1.55;;
23634;SDS011;11994;51.038;16.974;2022-07-19T13:02:08;5.15;;;1.37;;
23634;SDS011;11994;51.038;16.974;2022-07-19T13:04:37;3.45;;;1.22;;
23634;SDS011;11994;51.038;16.974;2022-07-19T13:07:06;4.78;;;1.60;;
23634;SDS011;11994;51.038;16.974;2022-07-19T13:09:34;4.35;;;1.50;;
23634;SDS011;11994;51.038;16.974;2022-07-19T13:12:02;2.95;;;1.55;;
23634;SDS011;11994;51.038;16.974;2022-07-19T13:14:32;3.80;;;1.60;;
23634;SDS011;11994;51.038;16.974;2022-07-19T13:16:59;3.90;;;1.35;;
23634;SDS011;11994;51.038;16.974;2022-07-19T13:19:26;5.08;;;1.40;;
23634;SDS011;11994;51.038;16.974;2022-07-19T13:21:52;4.75;;;1.60;;
23634;SDS011;11994;51.038;16.974;2022-07-19T13:24:18;4.37;;;1.52;;
23634;SDS011;11994;51.038;16.974;2022-07-19T13:26:45;4.83;;;1.50;;
23634;SDS011;11994;51.038;16.974;2022-07-19T13:29:11;3.70;;;1.17;;
23634;SDS011;11994;51.038;16.974;2022-07-19T13:31:37;3.58;;;1.50;;
23634;SDS011;11994;51.038;16.974;2022-07-19T13:34:03;4.67;;;1.50;;
23634;SDS011;11994;51.038;16.974;2022-07-19T13:36:30;6.47;;;1.32;;
23634;SDS011;11994;51.038;16.974;2022-07-19T13:38:56;5.80;;;1.40;;
23634;SDS011;11994;51.038;16.974;2022-07-19T13:41:22;4.05;;;1.55;;
23634;SDS011;11994;51.038;16.974;2022-07-19T13:43:48;3.15;;;1.70;;
23634;SDS011;11994;51.038;16.974;2022-07-19T13:46:14;8.40;;;1.80;;
23634;SDS011;11994;51.038;16.974;2022-07-19T13:48:40;5.53;;;1.77;;
23634;SDS011;11994;51.038;16.974;2022-07-19T13:51:06;4.60;;;2.12;;
23634;SDS011;11994;51.038;16.974;2022-07-19T13:53:37;5.53;;;1.87;;
23634;SDS011;11994;51.038;16.974;2022-07-19T13:56:01;5.78;;;1.47;;
23634;SDS011;11994;51.038;16.974;2022-07-19T13:58:29;4.08;;;1.45;;
23634;SDS011;11994;51.038;16.974;2022-07-19T14:00:55;5.55;;;1.87;;
23634;SDS011;11994;51.038;16.974;2022-07-19T14:03:21;3.90;;;1.62;;
23634;SDS011;11994;51.038;16.974;2022-07-19T14:05:47;5.58;;;1.62;;
23634;SDS011;11994;51.038;16.974;2022-07-19T14:08:13;8.28;;;1.67;;
23634;SDS011;11994;51.038;16.974;2022-07-19T14:10:40;4.08;;;1.62;;
23634;SDS011;11994;51.038;16.974;2022-07-19T14:13:07;5.22;;;1.50;;
23634;SDS011;11994;51.038;16.974;2022-07-19T14:15:33;5.60;;;1.87;;
23634;SDS011;11994;51.038;16.974;2022-07-19T14:18:00;4.35;;;1.98;;
23634;SDS011;11994;51.038;16.974;2022-07-19T14:20:27;4.78;;;1.70;;
23634;SDS011;11994;51.038;16.974;2022-07-19T14:22:53;5.15;;;1.80;;
23634;SDS011;11994;51.038;16.974;2022-07-19T14:25:20;7.97;;;1.90;;
23634;SDS011;11994;51.038;16.974;2022-07-19T14:27:46;6.40;;;1.87;;
23634;SDS011;11994;51.038;16.974;2022-07-19T14:30:12;6.42;;;2.10;;
23634;SDS011;11994;51.038;16.974;2022-07-19T14:32:38;4.15;;;1.75;;
23634;SDS011;11994;51.038;16.974;2022-07-19T14:35:04;5.37;;;1.77;;
23634;SDS011;11994;51.038;16.974;2022-07-19T14:37:30;6.62;;;1.72;;
23634;SDS011;11994;51.038;16.974;2022-07-19T14:39:56;4.45;;;1.80;;
23634;SDS011;11994;51.038;16.974;2022-07-19T14:42:22;6.12;;;1.70;;
23634;SDS011;11994;51.038;16.974;2022-07-19T14:44:48;6.30;;;2.10;;
23634;SDS011;11994;51.038;16.974;2022-07-19T14:47:14;4.75;;;2.00;;
23634;SDS011;11994;51.038;16.974;2022-07-19T14:49:40;5.35;;;1.95;;
23634;SDS011;11994;51.038;16.974;2022-07-19T14:52:06;5.92;;;1.95;;
23634;SDS011;11994;51.038;16.974;2022-07-19T14:54:32;9.18;;;1.77;;
23634;SDS011;11994;51.038;16.974;2022-07-19T14:56:58;8.10;;;1.92;;
23634;SDS011;11994;51.038;16.974;2022-07-19T14:59:24;7.60;;;1.85;;
23634;SDS011;11994;51.038;16.974;2022-07-19T15:01:50;7.72;;;1.82;;
23634;SDS011;11994;51.038;16.974;2022-07-19T15:04:17;4.90;;;1.90;;
23634;SDS011;11994;51.038;16.974;2022-07-19T15:06:44;3.62;;;1.70;;
23634;SDS011;11994;51.038;16.974;2022-07-19T15:09:10;6.08;;;1.62;;
23634;SDS011;11994;51.038;16.974;2022-07-19T15:11:37;4.17;;;1.50;;
23634;SDS011;11994;51.038;16.974;2022-07-19T15:14:05;3.98;;;1.82;;
23634;SDS011;11994;51.038;16.974;2022-07-19T15:16:31;5.00;;;1.90;;
23634;SDS011;11994;51.038;16.974;2022-07-19T15:18:57;4.60;;;1.85;;
23634;SDS011;11994;51.038;16.974;2022-07-19T15:21:23;5.05;;;1.92;;
23634;SDS011;11994;51.038;16.974;2022-07-19T15:23:49;3.35;;;1.65;;
23634;SDS011;11994;51.038;16.974;2022-07-19T15:26:16;5.00;;;2.00;;
23634;SDS011;11994;51.038;16.974;2022-07-19T15:28:41;3.25;;;1.60;;
23634;SDS011;11994;51.038;16.974;2022-07-19T15:31:08;7.17;;;1.87;;
23634;SDS011;11994;51.038;16.974;2022-07-19T15:33:34;5.35;;;1.77;;